Terminal Aerodrome Forecast
Issued by NWS Cleveland, OH

Home | Current Version | Previous Version | Text Only | Print | Product List | Glossary On
Versions: 1 2 3 4 5 6 7 8 9 10 11 12 13 14 15 16 17 18 19 20 21 22 23
289
FTUS41 KCLE 230539
TAFMFD
TAF
KMFD 230539Z 2306/2406 22014G20KT P6SM SCT020 OVC035
      TEMPO 2306/2307 5SM -SHRA OVC025
     FM231300 22014G22KT 5SM -SHRA OVC018
     FM232100 24018G28KT P6SM VCSH OVC012=

USA.gov is the U.S. government's official web portal to all federal, state and local government web resources and services.